Time;durP1;ratioP1;P1;durP2;ratioP2;P2;SDS_P1;SDS_P2;PMS_P1;PMS_P2;Temp;Humidity;BMP_temperature;BMP_pressure;BME280_temperature;BME280_humidity;BME280_pressure;Samples;Min_cycle;Max_cycle;Signal;HPM_P1;HPM_P2
2022/12/24 00:01:53;;;;;;;4.50;1.67;;;9.50;99.90;;;;;;5055537;28;20196;-84
2022/12/24 00:04:19;;;;;;;5.17;1.40;;;9.50;99.90;;;;;;5072825;28;20180;-84
2022/12/24 00:06:44;;;;;;;7.17;2.07;;;9.50;99.90;;;;;;5055385;28;20259;-84
2022/12/24 00:09:10;;;;;;;4.93;1.50;;;9.50;99.90;;;;;;5055578;28;20187;-85
2022/12/24 00:11:35;;;;;;;7.00;1.50;;;9.50;99.90;;;;;;5055551;28;20202;-84
2022/12/24 00:14:01;;;;;;;6.20;1.70;;;9.50;99.90;;;;;;5054758;28;20682;-85
2022/12/24 00:16:27;;;;;;;6.03;1.90;;;9.40;99.90;;;;;;5073135;28;20263;-85
2022/12/24 00:18:53;;;;;;;5.43;1.53;;;9.40;99.90;;;;;;5073485;28;20179;-84
2022/12/24 00:21:18;;;;;;;4.70;1.47;;;9.40;99.90;;;;;;5054900;28;20187;-84
2022/12/24 00:23:44;;;;;;;5.67;1.73;;;9.40;99.90;;;;;;5072796;28;20173;-84
2022/12/24 00:26:11;;;;;;;6.27;1.67;;;9.40;99.90;;;;;;5055164;28;20184;-84
2022/12/24 00:28:36;;;;;;;6.40;1.50;;;9.50;99.90;;;;;;5055090;28;20188;-84
2022/12/24 00:31:14;;;;;;;9.43;1.97;;;9.50;99.90;;;;;;5054955;28;20193;-84
2022/12/24 00:33:39;;;;;;;5.73;1.63;;;9.40;99.90;;;;;;5054201;28;20207;-87
2022/12/24 00:36:06;;;;;;;4.93;1.70;;;9.50;99.90;;;;;;5054874;28;20184;-84
2022/12/24 00:38:31;;;;;;;4.60;1.47;;;9.50;99.90;;;;;;5054965;28;20173;-86
2022/12/24 00:41:02;;;;;;;4.20;1.47;;;9.50;99.90;;;;;;5054630;28;20188;-84
2022/12/24 00:43:29;;;;;;;6.50;1.73;;;9.50;99.90;;;;;;5054356;28;20181;-85
2022/12/24 00:45:55;;;;;;;6.07;1.37;;;9.50;99.90;;;;;;5054653;28;20212;-85
2022/12/24 00:48:21;;;;;;;4.87;1.40;;;9.50;99.90;;;;;;5054567;28;20728;-84
2022/12/24 00:50:48;;;;;;;5.30;1.30;;;9.60;99.90;;;;;;5054628;28;20180;-84
2022/12/24 00:53:13;;;;;;;5.90;1.77;;;9.50;99.90;;;;;;5055387;28;20253;-84
2022/12/24 00:55:39;;;;;;;7.93;1.57;;;9.60;99.90;;;;;;5072376;28;20168;-84
2022/12/24 00:58:05;;;;;;;5.93;1.70;;;9.50;99.90;;;;;;5054462;28;20639;-85
2022/12/24 01:00:30;;;;;;;4.23;1.50;;;9.50;99.90;;;;;;5072321;28;20542;-84
2022/12/24 01:02:56;;;;;;;5.57;1.57;;;9.40;99.90;;;;;;5072214;28;20671;-84
2022/12/24 01:05:22;;;;;;;4.00;1.63;;;9.50;99.90;;;;;;5072570;28;20192;-84
2022/12/24 01:07:48;;;;;;;4.50;1.40;;;9.40;99.90;;;;;;5054347;28;20593;-84
2022/12/24 01:10:16;;;;;;;4.50;1.50;;;9.50;99.90;;;;;;5054460;28;20250;-85
2022/12/24 01:12:43;;;;;;;3.37;1.37;;;9.50;99.90;;;;;;5071559;28;20207;-85
2022/12/24 01:15:10;;;;;;;4.43;1.37;;;9.60;99.90;;;;;;5072155;28;20179;-86
2022/12/24 01:17:35;;;;;;;6.70;1.33;;;9.60;99.90;;;;;;5054277;28;20245;-85
2022/12/24 01:20:03;;;;;;;5.30;1.40;;;9.60;99.90;;;;;;5072103;28;20599;-84
2022/12/24 01:22:28;;;;;;;6.33;1.53;;;9.60;99.90;;;;;;5053409;28;20253;-85
2022/12/24 01:24:54;;;;;;;8.00;1.60;;;9.50;99.90;;;;;;5054254;28;20176;-84
2022/12/24 01:27:20;;;;;;;5.83;1.93;;;9.50;99.90;;;;;;5072122;28;20221;-85
2022/12/24 01:29:45;;;;;;;3.73;1.40;;;9.50;99.90;;;;;;5054139;28;20180;-86
2022/12/24 01:32:11;;;;;;;7.07;2.07;;;9.40;99.90;;;;;;5072029;28;20196;-84
2022/12/24 01:34:37;;;;;;;3.07;1.70;;;9.40;99.90;;;;;;5053646;28;20303;-84
2022/12/24 01:37:02;;;;;;;5.73;1.67;;;9.40;99.90;;;;;;5072123;28;20180;-84
2022/12/24 01:39:28;;;;;;;3.73;1.30;;;9.40;99.90;;;;;;5054034;28;20230;-84
2022/12/24 01:44:41;;;;;;;4.10;1.40;;;9.40;99.90;;;;;;5070730;28;20554;-83
2022/12/24 01:47:10;;;;;;;6.30;1.83;;;9.40;99.90;;;;;;5054028;28;20208;-84
2022/12/24 01:49:38;;;;;;;6.70;1.40;;;9.30;99.90;;;;;;5054093;28;20195;-84
2022/12/24 01:52:12;;;;;;;4.50;1.30;;;9.30;99.90;;;;;;5053700;28;20203;-84
2022/12/24 01:54:49;;;;;;;8.47;1.50;;;9.40;99.90;;;;;;5071601;28;20203;-84
2022/12/24 01:57:22;;;;;;;6.30;1.90;;;9.40;99.90;;;;;;5072051;28;20607;-84
2022/12/24 01:59:54;;;;;;;7.20;1.50;;;9.40;99.90;;;;;;5053761;28;20177;-85
2022/12/24 02:02:20;;;;;;;4.40;1.43;;;9.30;99.90;;;;;;5071157;28;20204;-84
2022/12/24 02:05:11;;;;;;;4.73;1.20;;;9.30;99.90;;;;;;5071733;28;20259;-84
2022/12/24 02:07:37;;;;;;;4.53;1.27;;;9.30;99.90;;;;;;5053813;28;20187;-85
2022/12/24 02:10:09;;;;;;;4.27;1.73;;;9.40;99.90;;;;;;5053840;28;20173;-84
2022/12/24 02:12:36;;;;;;;8.43;1.93;;;9.50;99.90;;;;;;5053287;28;20208;-85
2022/12/24 02:15:04;;;;;;;6.40;2.23;;;9.50;99.90;;;;;;5071391;28;20655;-85
2022/12/24 02:17:56;;;;;;;6.90;2.33;;;9.60;99.90;;;;;;5071533;28;20205;-85
2022/12/24 02:21:10;;;;;;;8.73;2.90;;;9.60;99.90;;;;;;5055029;28;20205;-86
2022/12/24 02:23:45;;;;;;;9.60;2.47;;;9.60;99.90;;;;;;5056899;28;20253;-85
2022/12/24 02:26:31;;;;;;;6.33;2.13;;;9.50;99.90;;;;;;5057213;28;20169;-85
2022/12/24 02:29:22;;;;;;;7.77;2.20;;;9.50;99.90;;;;;;5057323;28;20176;-84
2022/12/24 02:32:07;;;;;;;6.03;2.57;;;9.50;99.90;;;;;;5074998;28;20279;-84
2022/12/24 02:35:01;;;;;;;9.80;2.40;;;9.50;99.90;;;;;;5055346;28;20217;-85
2022/12/24 02:37:34;;;;;;;6.67;2.27;;;9.40;99.90;;;;;;5057429;28;20196;-85
2022/12/24 02:40:09;;;;;;;6.73;2.00;;;9.30;99.90;;;;;;5057086;28;20172;-85
2022/12/24 02:42:41;;;;;;;3.83;1.30;;;9.20;99.90;;;;;;5056497;28;20188;-84
2022/12/24 02:45:16;;;;;;;6.00;1.43;;;9.20;99.90;;;;;;5056914;28;20651;-85
2022/12/24 02:47:44;;;;;;;7.10;1.53;;;9.10;99.90;;;;;;5057123;28;20670;-85
2022/12/24 02:50:12;;;;;;;7.63;1.20;;;9.00;99.90;;;;;;5074897;28;20233;-85
2022/12/24 02:52:40;;;;;;;6.10;1.40;;;9.00;99.90;;;;;;5073979;28;20675;-85
2022/12/24 02:55:18;;;;;;;7.40;1.60;;;9.00;99.90;;;;;;5074636;28;20206;-85
2022/12/24 02:58:05;;;;;;;5.57;1.50;;;8.90;99.90;;;;;;5056867;28;20705;-86
2022/12/24 03:00:40;;;;;;;5.07;1.63;;;8.90;99.90;;;;;;5074645;28;20169;-85
2022/12/24 03:03:27;;;;;;;5.93;1.60;;;8.90;99.90;;;;;;5056203;28;20172;-85
2022/12/24 03:06:04;;;;;;;6.67;1.30;;;9.00;99.90;;;;;;5074458;28;20677;-85
2022/12/24 03:08:46;;;;;;;4.93;1.40;;;9.00;99.90;;;;;;5056791;28;20181;-85
2022/12/24 03:11:14;;;;;;;6.97;1.70;;;9.00;99.90;;;;;;5056339;28;20212;-85
2022/12/24 03:13:41;;;;;;;4.70;1.30;;;9.00;99.90;;;;;;5073655;28;20557;-85
2022/12/24 03:16:14;;;;;;;7.00;1.60;;;9.00;99.90;;;;;;5056380;28;20182;-86
2022/12/24 03:18:42;;;;;;;2.20;1.20;;;8.90;99.90;;;;;;5056559;28;20211;-85
2022/12/24 03:21:14;;;;;;;5.43;1.57;;;8.90;99.90;;;;;;5056261;28;20209;-87
2022/12/24 03:23:40;;;;;;;6.30;1.53;;;8.90;99.90;;;;;;5055751;28;20545;-85
2022/12/24 03:26:09;;;;;;;5.97;1.77;;;8.80;99.90;;;;;;5056235;28;20676;-85
2022/12/24 03:28:38;;;;;;;7.20;1.50;;;8.90;99.90;;;;;;5073951;28;20262;-85
2022/12/24 03:31:05;;;;;;;5.60;1.90;;;9.00;99.90;;;;;;5056156;28;20196;-85
2022/12/24 03:33:30;;;;;;;5.77;1.70;;;9.10;99.90;;;;;;5055686;28;20210;-85
2022/12/24 03:35:56;;;;;;;7.40;1.60;;;9.00;99.90;;;;;;5056426;28;20260;-85
2022/12/24 03:38:22;;;;;;;7.97;1.30;;;9.00;99.90;;;;;;5074331;28;20572;-85
2022/12/24 03:40:47;;;;;;;5.77;1.30;;;8.90;99.90;;;;;;5055955;28;20172;-85
2022/12/24 03:43:13;;;;;;;5.43;1.70;;;8.90;99.90;;;;;;5072999;28;20198;-85
2022/12/24 03:45:38;;;;;;;7.17;1.60;;;8.80;99.90;;;;;;5055765;28;20236;-85
2022/12/24 03:48:04;;;;;;;6.63;1.63;;;8.80;99.90;;;;;;5057097;28;20192;-85
2022/12/24 03:50:30;;;;;;;7.10;1.77;;;8.70;99.90;;;;;;5055854;28;20270;-84
2022/12/24 03:52:56;;;;;;;7.13;1.77;;;8.70;99.90;;;;;;5055164;28;20291;-85
2022/12/24 03:55:22;;;;;;;9.07;1.70;;;8.60;99.90;;;;;;5073547;28;20267;-85
2022/12/24 03:57:47;;;;;;;6.27;1.73;;;8.70;99.90;;;;;;5055562;28;20180;-85
2022/12/24 04:00:13;;;;;;;8.43;1.67;;;8.70;99.90;;;;;;5055826;28;20200;-85
2022/12/24 04:02:39;;;;;;;8.00;1.80;;;8.70;99.90;;;;;;5072894;28;20192;-85
2022/12/24 04:05:06;;;;;;;5.40;1.77;;;8.70;99.90;;;;;;5055716;28;20175;-85
2022/12/24 04:07:32;;;;;;;6.73;2.10;;;8.70;99.90;;;;;;5073346;28;20257;-85
2022/12/24 04:09:58;;;;;;;6.20;1.97;;;8.60;99.90;;;;;;5055341;28;20639;-84
2022/12/24 04:12:24;;;;;;;5.53;1.87;;;8.70;99.90;;;;;;5072601;28;20286;-85
2022/12/24 04:14:49;;;;;;;6.17;2.17;;;8.60;99.90;;;;;;5055122;28;20212;-84
2022/12/24 04:17:15;;;;;;;8.80;1.80;;;8.60;99.90;;;;;;5055299;28;20594;-85
2022/12/24 04:19:40;;;;;;;7.43;2.10;;;8.60;99.90;;;;;;5055325;28;20708;-84
2022/12/24 04:22:06;;;;;;;9.27;2.07;;;8.60;99.90;;;;;;5072892;28;20224;-84
2022/12/24 04:24:32;;;;;;;7.53;2.07;;;8.60;99.90;;;;;;5072412;28;20171;-84
2022/12/24 04:26:57;;;;;;;4.53;1.80;;;8.60;99.90;;;;;;5055048;28;20236;-85
2022/12/24 04:29:23;;;;;;;6.73;2.00;;;8.50;99.90;;;;;;5073080;28;20200;-84
2022/12/24 04:31:48;;;;;;;7.27;2.20;;;8.50;99.90;;;;;;5054765;28;20196;-84
2022/12/24 04:34:14;;;;;;;6.77;1.80;;;8.40;99.90;;;;;;5054388;28;20203;-85
2022/12/24 04:36:39;;;;;;;8.27;2.10;;;8.40;99.90;;;;;;5055082;28;20172;-86
2022/12/24 04:39:05;;;;;;;10.07;2.33;;;8.30;99.90;;;;;;5072720;28;20182;-85
2022/12/24 04:41:31;;;;;;;7.53;1.87;;;8.30;99.90;;;;;;5054671;28;20204;-84
2022/12/24 04:43:57;;;;;;;4.33;1.73;;;8.30;99.90;;;;;;5071805;28;20539;-85
2022/12/24 04:46:26;;;;;;;8.50;1.80;;;8.30;99.90;;;;;;5072574;28;20184;-85
2022/12/24 04:48:53;;;;;;;6.77;1.90;;;8.30;99.90;;;;;;5072612;28;20187;-85
2022/12/24 04:51:19;;;;;;;6.47;1.80;;;8.30;99.90;;;;;;5054473;28;20199;-85
2022/12/24 04:53:45;;;;;;;6.10;1.90;;;8.30;99.90;;;;;;5054050;28;20295;-85
2022/12/24 04:56:13;;;;;;;8.03;2.00;;;8.30;99.90;;;;;;5072301;28;20269;-85
2022/12/24 04:58:39;;;;;;;9.67;2.37;;;8.40;99.90;;;;;;5054659;28;20194;-85
2022/12/24 05:01:07;;;;;;;9.87;1.70;;;8.40;99.90;;;;;;5054482;28;20200;-85
2022/12/24 05:03:33;;;;;;;6.80;2.23;;;8.40;99.90;;;;;;5054153;28;20191;-86
2022/12/24 05:06:07;;;;;;;6.77;1.70;;;8.40;99.90;;;;;;5072337;28;20187;-84
2022/12/24 05:08:33;;;;;;;10.03;1.77;;;8.40;99.90;;;;;;5054218;28;20278;-85
2022/12/24 05:11:00;;;;;;;7.47;2.10;;;8.40;99.90;;;;;;5054283;28;20299;-85
2022/12/24 05:13:27;;;;;;;8.37;1.77;;;8.40;99.90;;;;;;5053966;28;20238;-85
2022/12/24 05:15:53;;;;;;;7.03;1.77;;;8.40;99.90;;;;;;5054340;28;20275;-85
2022/12/24 05:18:19;;;;;;;6.33;1.83;;;8.40;99.90;;;;;;5072426;28;20256;-85
2022/12/24 05:20:45;;;;;;;11.43;2.20;;;8.40;99.90;;;;;;5054170;28;20176;-84
2022/12/24 05:28:45;;;;;;;9.20;2.40;;;8.40;99.90;;;;;;5072340;28;20209;-85
2022/12/24 05:31:11;;;;;;;5.80;1.70;;;8.40;99.90;;;;;;5054000;28;20673;-85
2022/12/24 05:33:36;;;;;;;8.00;1.73;;;8.40;99.90;;;;;;5071336;28;20646;-85
2022/12/24 05:36:02;;;;;;;7.40;2.37;;;8.40;99.90;;;;;;5054282;28;20175;-86
2022/12/24 05:38:28;;;;;;;6.90;1.83;;;8.40;99.90;;;;;;5071830;28;20180;-84
2022/12/24 05:40:53;;;;;;;5.40;1.80;;;8.40;99.90;;;;;;5053866;28;20205;-84
2022/12/24 05:43:19;;;;;;;7.43;2.30;;;8.40;99.90;;;;;;5071526;28;20663;-84
2022/12/24 05:45:44;;;;;;;7.40;2.03;;;8.40;99.90;;;;;;5071811;28;20262;-85
2022/12/24 05:48:10;;;;;;;7.50;2.07;;;8.40;99.90;;;;;;5071672;28;20187;-85
2022/12/24 05:50:39;;;;;;;10.83;2.80;;;8.50;99.90;;;;;;5054198;28;20266;-84
2022/12/24 05:53:05;;;;;;;5.80;1.90;;;8.40;99.90;;;;;;5071381;28;20210;-85
2022/12/24 05:55:31;;;;;;;7.77;2.20;;;8.40;99.90;;;;;;5055651;28;20173;-86
2022/12/24 05:57:57;;;;;;;7.77;2.10;;;8.40;99.90;;;;;;5057880;28;20200;-87
2022/12/24 06:00:22;;;;;;;8.33;2.10;;;8.50;99.90;;;;;;5058099;28;20774;-85
2022/12/24 06:02:48;;;;;;;8.73;2.10;;;8.40;99.90;;;;;;5057222;28;20203;-85
2022/12/24 06:05:13;;;;;;;7.77;2.00;;;8.40;99.90;;;;;;5075743;28;20174;-85
2022/12/24 06:07:39;;;;;;;7.83;1.93;;;8.30;99.90;;;;;;5057673;28;20255;-84
2022/12/24 06:10:06;;;;;;;9.10;2.40;;;8.30;99.90;;;;;;5057714;28;20172;-84
2022/12/24 06:12:31;;;;;;;8.83;2.60;;;8.30;99.90;;;;;;5075094;28;20240;-85
2022/12/24 06:14:57;;;;;;;7.37;2.37;;;8.30;99.90;;;;;;5075455;28;20201;-84
2022/12/24 06:17:23;;;;;;;9.03;2.30;;;8.30;99.90;;;;;;5075656;28;20170;-83
2022/12/24 06:19:48;;;;;;;11.67;2.40;;;8.30;99.90;;;;;;5075646;28;20172;-84
2022/12/24 06:22:14;;;;;;;8.67;1.83;;;8.30;99.90;;;;;;5056835;28;20191;-83
2022/12/24 06:24:39;;;;;;;6.00;1.90;;;8.20;99.90;;;;;;5075407;28;20187;-84
2022/12/24 06:27:05;;;;;;;6.57;2.10;;;8.30;99.90;;;;;;5057457;28;20174;-85
2022/12/24 06:29:31;;;;;;;5.97;2.00;;;8.30;99.90;;;;;;5075408;28;20247;-85
2022/12/24 06:31:56;;;;;;;8.37;2.10;;;8.30;99.90;;;;;;5057409;28;20200;-84
2022/12/24 06:34:22;;;;;;;5.00;1.63;;;8.40;99.90;;;;;;5056804;28;20302;-85
2022/12/24 06:36:47;;;;;;;7.43;2.17;;;8.40;99.90;;;;;;5057219;28;20277;-84
2022/12/24 06:39:13;;;;;;;11.10;2.23;;;8.40;99.90;;;;;;5074986;28;20175;-84
2022/12/24 06:41:38;;;;;;;4.83;1.70;;;8.30;99.90;;;;;;5075057;28;20200;-85
2022/12/24 06:44:04;;;;;;;7.87;2.00;;;8.30;99.90;;;;;;5074532;28;20645;-84
2022/12/24 06:46:29;;;;;;;10.00;2.17;;;8.30;99.90;;;;;;5056801;28;20672;-84
2022/12/24 06:48:55;;;;;;;5.93;2.00;;;8.30;99.90;;;;;;5057101;28;20212;-84
2022/12/24 06:51:21;;;;;;;8.33;2.20;;;8.30;99.90;;;;;;5074957;28;20207;-85
2022/12/24 06:53:49;;;;;;;6.83;2.10;;;8.30;99.90;;;;;;5056061;28;20199;-84
2022/12/24 06:56:15;;;;;;;7.77;1.97;;;8.30;99.90;;;;;;5074950;28;20172;-84
2022/12/24 06:58:41;;;;;;;5.97;2.30;;;8.30;99.90;;;;;;5074743;28;20172;-84
2022/12/24 07:01:09;;;;;;;5.20;2.03;;;8.30;99.90;;;;;;5056610;28;20240;-84
2022/12/24 07:03:35;;;;;;;10.33;2.73;;;8.30;99.90;;;;;;5056274;28;20176;-85
2022/12/24 07:06:00;;;;;;;5.27;2.10;;;8.30;99.90;;;;;;5056140;28;20183;-86
2022/12/24 07:08:26;;;;;;;5.93;2.40;;;8.20;99.90;;;;;;5056763;28;20185;-85
2022/12/24 07:10:52;;;;;;;5.17;2.20;;;8.20;99.90;;;;;;5074568;28;20168;-88
2022/12/24 07:13:18;;;;;;;6.53;2.10;;;8.30;99.90;;;;;;5055857;28;20230;-86
2022/12/24 07:15:44;;;;;;;7.50;2.27;;;8.50;99.90;;;;;;5074602;28;20551;-84
2022/12/24 07:18:11;;;;;;;7.07;2.30;;;8.80;99.90;;;;;;5074827;28;20175;-81
2022/12/24 07:20:37;;;;;;;9.77;2.50;;;9.00;99.90;;;;;;5056655;28;20172;-86
2022/12/24 07:23:02;;;;;;;8.73;2.30;;;9.10;99.90;;;;;;5056088;28;20199;-86
2022/12/24 07:25:28;;;;;;;5.83;1.97;;;9.10;99.90;;;;;;5057303;28;20545;-83
2022/12/24 07:27:53;;;;;;;9.60;2.63;;;9.10;99.90;;;;;;5056501;28;20176;-84
2022/12/24 07:30:19;;;;;;;8.13;2.63;;;8.90;99.90;;;;;;5056589;28;20225;-86
2022/12/24 07:32:45;;;;;;;7.70;2.17;;;8.70;99.90;;;;;;5073628;28;20265;-85
2022/12/24 07:35:10;;;;;;;11.27;2.40;;;8.40;99.90;;;;;;5073895;28;20216;-83
2022/12/24 07:37:36;;;;;;;5.33;1.93;;;8.40;99.90;;;;;;5056578;28;20653;-83
2022/12/24 07:40:05;;;;;;;7.57;2.77;;;8.40;99.90;;;;;;5074637;28;20176;-82
2022/12/24 07:42:30;;;;;;;9.83;2.33;;;8.40;99.90;;;;;;5055812;28;20199;-82
2022/12/24 07:44:56;;;;;;;7.43;2.40;;;8.30;99.90;;;;;;5073181;28;20179;-82
2022/12/24 07:47:21;;;;;;;7.87;2.60;;;8.30;99.90;;;;;;5074071;28;20175;-82
2022/12/24 07:49:47;;;;;;;7.37;2.70;;;8.20;99.90;;;;;;5056408;28;20172;-82
2022/12/24 07:52:13;;;;;;;8.07;2.60;;;8.20;99.90;;;;;;5073982;28;20249;-81
2022/12/24 07:54:38;;;;;;;5.77;2.23;;;8.30;99.90;;;;;;5073571;28;20257;-83
2022/12/24 07:57:04;;;;;;;5.53;2.30;;;8.30;99.90;;;;;;5073722;28;20179;-84
2022/12/24 07:59:30;;;;;;;8.87;2.63;;;8.20;99.90;;;;;;5055879;28;20172;-83
2022/12/24 08:01:55;;;;;;;686.20;215.40;;;8.30;99.90;;;;;;5073622;28;20216;-82
2022/12/24 08:04:21;;;;;;;123.83;42.00;;;8.30;99.90;;;;;;5055411;28;20218;-84
2022/12/24 08:06:46;;;;;;;54.70;20.07;;;8.90;99.90;;;;;;5055774;28;20177;-84
2022/12/24 08:09:13;;;;;;;8.70;3.60;;;9.70;99.90;;;;;;5056178;28;20226;-86
2022/12/24 08:11:38;;;;;;;5.80;2.43;;;9.50;99.90;;;;;;5073141;28;20218;-87
2022/12/24 08:14:04;;;;;;;6.20;2.00;;;9.10;99.90;;;;;;5072519;28;20742;-86
2022/12/24 08:16:29;;;;;;;7.30;2.40;;;8.80;99.90;;;;;;5055511;28;20169;-87
2022/12/24 08:18:55;;;;;;;5.90;2.60;;;8.60;99.90;;;;;;5072475;28;20191;-86
2022/12/24 08:21:20;;;;;;;6.27;2.50;;;8.50;99.90;;;;;;5055161;28;20192;-86
2022/12/24 08:23:46;;;;;;;7.57;2.80;;;8.40;99.90;;;;;;5054783;28;20226;-86
2022/12/24 08:26:12;;;;;;;6.87;2.33;;;8.30;99.90;;;;;;5073174;28;20272;-86
2022/12/24 08:28:38;;;;;;;7.63;2.37;;;8.30;99.90;;;;;;5054908;28;20180;-86
2022/12/24 08:31:04;;;;;;;7.23;2.40;;;8.20;99.90;;;;;;5055149;28;20199;-86
2022/12/24 08:33:31;;;;;;;6.93;2.33;;;8.30;99.90;;;;;;5054337;28;20220;-86
2022/12/24 08:35:56;;;;;;;9.97;3.00;;;8.30;99.90;;;;;;5054945;28;20184;-86
2022/12/24 08:38:23;;;;;;;9.97;2.70;;;8.30;99.90;;;;;;5054898;28;20207;-86
2022/12/24 08:40:48;;;;;;;5.03;2.07;;;8.30;99.90;;;;;;5054759;28;20181;-86
2022/12/24 08:43:15;;;;;;;9.03;2.60;;;8.30;99.90;;;;;;5053990;28;20187;-86
2022/12/24 08:45:41;;;;;;;8.97;2.73;;;8.40;99.90;;;;;;5055058;28;20531;-86
2022/12/24 08:48:08;;;;;;;8.00;2.30;;;8.40;99.90;;;;;;5072640;28;20187;-86
2022/12/24 08:50:33;;;;;;;8.93;2.90;;;8.40;99.90;;;;;;5072640;28;20190;-86
2022/12/24 08:52:59;;;;;;;8.20;2.80;;;8.40;99.90;;;;;;5054050;28;20204;-86
2022/12/24 08:55:25;;;;;;;9.67;2.50;;;8.40;99.90;;;;;;5054695;28;20596;-86
2022/12/24 08:57:50;;;;;;;9.13;2.40;;;8.40;99.90;;;;;;5054443;28;20183;-86
2022/12/24 09:00:17;;;;;;;8.77;2.53;;;8.40;99.90;;;;;;5072551;28;20183;-86
2022/12/24 09:02:42;;;;;;;8.30;2.20;;;8.40;99.90;;;;;;5071893;28;20294;-86
2022/12/24 09:05:08;;;;;;;8.07;2.30;;;8.50;99.90;;;;;;5072412;28;20184;-86
2022/12/24 09:07:34;;;;;;;8.80;3.17;;;8.40;99.90;;;;;;5054371;28;20186;-86
2022/12/24 09:10:00;;;;;;;6.73;2.57;;;8.40;99.90;;;;;;5072279;28;20633;-85
2022/12/24 09:12:25;;;;;;;7.53;2.57;;;8.50;99.90;;;;;;5053681;28;20210;-86
2022/12/24 09:14:53;;;;;;;7.77;2.70;;;8.40;99.90;;;;;;5054171;28;20245;-86
2022/12/24 09:17:19;;;;;;;8.70;2.80;;;8.50;99.90;;;;;;5072277;28;20174;-86
2022/12/24 09:19:45;;;;;;;8.30;2.10;;;8.40;99.90;;;;;;5072138;28;20232;-86
2022/12/24 09:22:10;;;;;;;6.70;2.43;;;8.40;99.90;;;;;;5054076;28;20551;-86
2022/12/24 09:24:36;;;;;;;8.67;3.33;;;8.50;99.90;;;;;;5071675;28;20187;-81
2022/12/24 09:27:02;;;;;;;7.23;2.67;;;8.50;99.90;;;;;;5054099;28;20182;-85
2022/12/24 09:29:28;;;;;;;7.33;2.83;;;8.40;99.90;;;;;;5053954;28;20182;-85
2022/12/24 09:31:55;;;;;;;8.03;2.60;;;8.50;99.90;;;;;;5054238;28;20696;-82
2022/12/24 09:34:21;;;;;;;8.47;3.23;;;8.50;99.90;;;;;;5071381;28;20214;-84
2022/12/24 09:36:46;;;;;;;7.10;2.17;;;8.50;99.90;;;;;;5071975;28;20172;-84
2022/12/24 09:39:12;;;;;;;7.40;2.20;;;8.50;99.90;;;;;;5072064;28;20175;-85
2022/12/24 09:42:24;;;;;;;6.70;3.17;;;8.50;99.90;;;;;;5071643;28;20200;-84
2022/12/24 09:44:57;;;;;;;5.10;2.20;;;8.50;99.90;;;;;;5072028;28;20233;-83
2022/12/24 09:47:25;;;;;;;6.67;2.10;;;8.50;99.90;;;;;;5068464;22;20585;-83
2022/12/24 09:49:52;;;;;;;5.70;1.80;;;8.50;99.90;;;;;;5034317;28;20173;-84
2022/12/24 09:52:37;;;;;;;8.33;3.20;;;8.50;99.90;;;;;;5033950;28;20236;-82
2022/12/24 09:55:14;;;;;;;6.40;2.50;;;8.50;99.90;;;;;;5036267;28;20205;-83
2022/12/24 09:57:40;;;;;;;5.17;2.20;;;8.50;99.90;;;;;;5036191;28;20541;-83
2022/12/24 10:00:36;;;;;;;4.67;2.30;;;8.50;99.90;;;;;;5036186;28;20176;-84
2022/12/24 10:03:22;;;;;;;6.70;3.00;;;8.50;99.90;;;;;;5033328;28;20409;-83
2022/12/24 10:06:06;;;;;;;5.90;2.50;;;8.50;99.90;;;;;;5032598;28;20190;-83
2022/12/24 10:08:50;;;;;;;7.13;2.87;;;8.50;99.90;;;;;;5034170;28;20269;-83
2022/12/24 10:11:39;;;;;;;7.07;2.67;;;8.60;99.90;;;;;;5034828;28;20173;-83
2022/12/24 10:14:17;;;;;;;8.67;3.10;;;8.60;99.90;;;;;;5033487;28;20205;-83
2022/12/24 10:16:58;;;;;;;5.90;2.77;;;8.60;99.90;;;;;;5033380;28;20193;-82
2022/12/24 10:19:43;;;;;;;9.00;3.17;;;8.60;99.90;;;;;;5031720;28;20260;-83
2022/12/24 10:22:23;;;;;;;9.87;3.20;;;8.60;99.90;;;;;;5032382;28;20174;-83
2022/12/24 10:25:01;;;;;;;11.40;3.57;;;8.60;99.90;;;;;;5032338;28;20192;-83
2022/12/24 10:27:36;;;;;;;15.67;3.77;;;8.60;99.90;;;;;;5034216;28;20207;-81
2022/12/24 10:30:24;;;;;;;10.10;3.90;;;8.60;99.90;;;;;;5033130;28;20177;-84
2022/12/24 10:32:52;;;;;;;8.47;3.30;;;8.60;99.90;;;;;;5035768;28;20218;-83
2022/12/24 10:35:35;;;;;;;10.23;3.40;;;8.70;99.90;;;;;;5037293;28;20251;-82
2022/12/24 10:38:03;;;;;;;13.67;3.60;;;8.60;99.90;;;;;;5037379;28;20197;-83
2022/12/24 10:40:48;;;;;;;12.67;3.63;;;8.70;99.90;;;;;;5036129;28;20257;-83
2022/12/24 10:43:16;;;;;;;13.30;3.70;;;8.70;99.90;;;;;;5037198;28;20177;-84
2022/12/24 10:45:46;;;;;;;14.83;4.20;;;8.80;99.90;;;;;;5034652;28;20175;-84
2022/12/24 10:48:26;;;;;;;12.90;3.73;;;8.80;99.90;;;;;;5035255;28;20220;-83
2022/12/24 10:50:59;;;;;;;13.17;3.90;;;8.70;99.90;;;;;;5034226;28;20392;-85
2022/12/24 10:53:53;;;;;;;11.63;3.70;;;8.70;99.90;;;;;;5034789;28;20241;-85
2022/12/24 10:56:20;;;;;;;9.90;3.50;;;8.80;99.90;;;;;;5035576;28;20174;-87
2022/12/24 10:58:52;;;;;;;12.30;3.90;;;8.70;99.90;;;;;;5033552;28;20181;-87
2022/12/24 11:01:18;;;;;;;10.27;3.27;;;8.80;99.90;;;;;;5034114;28;20173;-87
2022/12/24 11:03:43;;;;;;;9.60;3.70;;;8.80;99.90;;;;;;5033580;28;20184;-84
2022/12/24 11:06:13;;;;;;;13.07;4.07;;;8.80;99.90;;;;;;5034000;28;20185;-84
2022/12/24 11:08:42;;;;;;;13.43;4.17;;;8.90;99.90;;;;;;5035400;28;20207;-85
2022/12/24 11:11:11;;;;;;;8.67;3.50;;;8.80;99.90;;;;;;5033428;28;20187;-85
2022/12/24 11:13:55;;;;;;;10.87;3.97;;;8.90;99.90;;;;;;5034535;28;20212;-85
2022/12/24 11:16:35;;;;;;;9.53;3.47;;;8.90;99.90;;;;;;5035059;28;20184;-85
2022/12/24 11:19:03;;;;;;;11.40;3.63;;;9.00;99.90;;;;;;5035285;28;20181;-85
2022/12/24 11:21:38;;;;;;;9.43;3.10;;;9.00;99.90;;;;;;5034960;28;20170;-84
2022/12/24 11:24:12;;;;;;;7.47;3.30;;;9.10;99.90;;;;;;5033239;28;20182;-85
2022/12/24 11:26:41;;;;;;;8.93;3.20;;;9.20;99.90;;;;;;5033940;28;20180;-84
2022/12/24 11:29:25;;;;;;;9.47;3.30;;;9.20;99.90;;;;;;5034028;28;20178;-84
2022/12/24 11:31:51;;;;;;;11.93;3.80;;;9.30;99.90;;;;;;5033497;28;20197;-85
2022/12/24 11:34:17;;;;;;;10.90;3.17;;;9.40;99.90;;;;;;5034050;28;20201;-85
2022/12/24 11:36:43;;;;;;;9.73;3.23;;;9.60;99.90;;;;;;5033086;28;20194;-85
2022/12/24 11:39:22;;;;;;;6.77;2.60;;;9.70;99.90;;;;;;5032911;28;20182;-85
2022/12/24 11:41:51;;;;;;;10.47;2.90;;;9.80;99.90;;;;;;5034352;28;20183;-87
2022/12/24 11:44:26;;;;;;;6.53;2.83;;;10.00;99.90;;;;;;5032560;28;20182;-86
2022/12/24 11:46:55;;;;;;;6.53;2.80;;;10.10;99.90;;;;;;5034282;28;20207;-85
2022/12/24 11:49:25;;;;;;;10.90;2.63;;;10.10;99.90;;;;;;5033055;28;20179;-85
2022/12/24 11:52:09;;;;;;;8.17;2.57;;;10.00;99.90;;;;;;5034368;28;20181;-86
2022/12/24 11:54:52;;;;;;;8.57;2.77;;;9.90;99.90;;;;;;5033922;28;20350;-84
2022/12/24 11:57:21;;;;;;;11.80;3.07;;;9.80;99.90;;;;;;5036722;28;20213;-82
2022/12/24 11:59:48;;;;;;;11.93;2.50;;;9.90;99.90;;;;;;5032630;28;20178;-81
2022/12/24 12:02:19;;;;;;;11.30;3.00;;;10.30;99.90;;;;;;5030813;28;20257;-84
2022/12/24 12:04:50;;;;;;;7.17;2.23;;;10.40;99.90;;;;;;5035051;28;20212;-84
2022/12/24 12:07:29;;;;;;;6.10;2.63;;;10.80;99.90;;;;;;5034389;28;20198;-84
2022/12/24 12:10:07;;;;;;;8.47;2.33;;;10.50;99.90;;;;;;5033229;28;20174;-85
2022/12/24 12:12:45;;;;;;;7.50;2.20;;;10.10;99.90;;;;;;5032948;28;20204;-84
2022/12/24 12:15:22;;;;;;;10.23;2.80;;;9.90;99.90;;;;;;5033622;28;20560;-85
2022/12/24 12:18:08;;;;;;;11.97;3.20;;;9.80;99.90;;;;;;5014838;28;20614;-84
2022/12/24 12:20:42;;;;;;;12.63;3.03;;;9.70;99.90;;;;;;5013922;28;20171;-84
2022/12/24 12:23:32;;;;;;;11.97;2.93;;;9.70;99.90;;;;;;5012665;28;20175;-85
2022/12/24 12:26:20;;;;;;;10.17;2.67;;;9.60;99.90;;;;;;5018458;28;20638;-84
2022/12/24 12:28:58;;;;;;;9.60;3.27;;;9.60;99.90;;;;;;5033059;28;20189;-84
2022/12/24 12:31:34;;;;;;;11.23;3.20;;;9.50;99.90;;;;;;5033844;28;20186;-84
2022/12/24 12:34:02;;;;;;;9.30;3.40;;;9.50;99.90;;;;;;5032222;28;20194;-85
2022/12/24 12:37:00;;;;;;;11.43;3.30;;;9.50;99.90;;;;;;5032743;28;20652;-84
2022/12/24 12:39:26;;;;;;;9.53;3.07;;;9.50;99.90;;;;;;5025556;28;20631;-84
2022/12/24 12:42:19;;;;;;;8.43;2.70;;;9.50;99.90;;;;;;5031658;28;20190;-87
2022/12/24 12:45:06;;;;;;;8.63;2.57;;;9.50;99.90;;;;;;5032085;28;20175;-84
2022/12/24 12:48:10;;;;;;;6.90;2.47;;;9.60;99.90;;;;;;5033400;28;20217;-87
2022/12/24 12:50:57;;;;;;;11.70;3.00;;;9.70;99.90;;;;;;5018814;28;20274;-84
2022/12/24 12:53:40;;;;;;;9.83;2.70;;;9.70;99.90;;;;;;5030724;28;20182;-85
2022/12/24 12:56:28;;;;;;;12.20;3.47;;;9.70;99.90;;;;;;5030809;28;20268;-84
2022/12/24 12:58:53;;;;;;;10.07;2.97;;;9.70;99.90;;;;;;5032264;28;20182;-85
2022/12/24 13:01:29;;;;;;;10.00;2.90;;;9.70;99.90;;;;;;5032144;28;20628;-85
2022/12/24 13:04:09;;;;;;;8.13;3.33;;;9.70;99.90;;;;;;5031983;28;20180;-85
2022/12/24 13:06:59;;;;;;;12.07;4.27;;;9.80;99.90;;;;;;5033372;28;20209;-85
2022/12/24 13:09:56;;;;;;;13.57;4.37;;;10.00;99.90;;;;;;5033148;28;20178;-85
2022/12/24 13:12:30;;;;;;;16.80;8.97;;;10.20;99.90;;;;;;5034003;28;20182;-84
2022/12/24 13:15:23;;;;;;;13.03;5.37;;;10.30;99.90;;;;;;5033146;28;20193;-85
2022/12/24 13:18:08;;;;;;;11.77;3.80;;;10.30;99.90;;;;;;5034073;28;20661;-87
2022/12/24 13:20:39;;;;;;;16.47;9.13;;;10.30;99.90;;;;;;5032683;28;20170;-85